createdAt,value
2017-08-15T00:00:50.234Z,19.94
2017-08-15T00:01:50.361Z,19.93
2017-08-15T00:02:50.337Z,19.83
2017-08-15T00:03:50.397Z,19.87
2017-08-15T00:04:50.446Z,19.88
2017-08-15T00:05:50.493Z,19.86
2017-08-15T00:06:50.836Z,19.84
2017-08-15T00:07:50.598Z,19.95
2017-08-15T00:08:50.651Z,19.84
2017-08-15T00:09:50.702Z,19.91
2017-08-15T00:10:50.754Z,19.80
2017-08-15T00:11:50.809Z,19.80
2017-08-15T00:12:50.923Z,19.91
2017-08-15T00:13:50.914Z,19.91
2017-08-15T00:14:50.961Z,19.83
2017-08-15T00:15:51.564Z,19.84
2017-08-15T00:16:51.072Z,19.80
2017-08-15T00:17:51.188Z,19.79
2017-08-15T00:18:51.172Z,19.87
2017-08-15T00:19:51.228Z,19.83
2017-08-15T00:20:51.280Z,19.72
2017-08-15T00:21:51.329Z,19.69
2017-08-15T00:22:51.449Z,19.69
2017-08-15T00:23:51.435Z,19.65
2017-08-15T00:24:51.486Z,19.66
2017-08-15T00:25:51.539Z,19.65
2017-08-15T00:26:51.590Z,19.79
2017-08-15T00:27:51.711Z,19.73
2017-08-15T00:28:51.699Z,19.72
2017-08-15T00:29:51.745Z,19.72
2017-08-15T00:30:51.803Z,19.72
2017-08-15T00:31:51.849Z,19.63
2017-08-15T00:32:51.975Z,19.68
2017-08-15T00:33:51.955Z,19.58
2017-08-15T00:34:52.009Z,19.66
2017-08-15T00:35:52.061Z,19.68
2017-08-15T00:36:52.113Z,19.76
2017-08-15T00:37:52.460Z,19.70
2017-08-15T00:38:52.219Z,19.68
2017-08-15T00:39:52.268Z,19.73
2017-08-15T00:40:52.324Z,19.80
2017-08-15T00:41:52.377Z,19.84
2017-08-15T00:42:52.432Z,19.78
2017-08-15T00:43:52.547Z,19.73
2017-08-15T00:44:52.530Z,19.65
2017-08-15T00:45:52.583Z,19.65
2017-08-15T00:46:52.633Z,19.55
2017-08-15T00:47:55.319Z,19.61
2017-08-15T00:48:57.570Z,19.42
2017-08-15T00:49:55.328Z,19.40
2017-08-15T00:50:55.469Z,19.40
2017-08-15T00:51:55.399Z,19.33
2017-08-15T00:52:55.636Z,19.29
2017-08-15T00:53:57.460Z,19.25
2017-08-15T00:54:55.679Z,19.28
2017-08-15T00:55:55.760Z,19.21
2017-08-15T00:56:56.687Z,19.23
2017-08-15T00:57:55.749Z,19.21
2017-08-15T00:58:53.887Z,19.20
2017-08-15T00:59:54.143Z,19.20
2017-08-15T01:00:53.366Z,19.32
2017-08-15T01:01:53.417Z,19.18
2017-08-15T01:02:53.470Z,19.23
2017-08-15T01:03:53.584Z,19.21
2017-08-15T01:04:53.574Z,19.29
2017-08-15T01:05:53.624Z,19.21
2017-08-15T01:06:56.554Z,19.20
2017-08-15T01:07:54.242Z,19.15
2017-08-15T01:08:54.007Z,19.13
2017-08-15T01:09:54.507Z,19.18
2017-08-15T01:10:54.877Z,19.24
2017-08-15T01:11:54.131Z,19.20
2017-08-15T01:12:54.358Z,19.20
2017-08-15T01:13:54.110Z,19.21
2017-08-15T01:14:54.440Z,19.20
2017-08-15T01:15:56.566Z,19.21
2017-08-15T01:16:54.406Z,19.23
2017-08-15T01:17:54.807Z,19.21
2017-08-15T01:18:55.466Z,19.20
2017-08-15T01:19:55.390Z,19.21
2017-08-15T01:20:54.767Z,19.15
2017-08-15T01:21:56.779Z,19.18
2017-08-15T01:22:54.510Z,19.13
2017-08-15T01:23:56.196Z,19.14
2017-08-15T01:24:56.049Z,19.10
2017-08-15T01:25:55.401Z,19.06
2017-08-15T01:26:55.843Z,18.92
2017-08-15T01:27:55.558Z,18.84
2017-08-15T01:28:58.254Z,18.91
2017-08-15T01:29:56.237Z,18.84
2017-08-15T01:30:57.346Z,18.84
2017-08-15T01:31:56.024Z,18.94
2017-08-15T01:32:56.251Z,18.98
2017-08-15T01:33:56.666Z,19.10
2017-08-15T01:34:57.354Z,19.15
2017-08-15T01:35:56.282Z,19.08
2017-08-15T01:36:56.278Z,19.06
2017-08-15T01:37:56.600Z,19.11
2017-08-15T01:38:56.204Z,19.10
2017-08-15T01:39:59.442Z,19.23
2017-08-15T01:40:56.445Z,19.32
2017-08-15T01:41:58.167Z,19.33
2017-08-15T01:42:57.071Z,19.18
2017-08-15T01:43:56.767Z,19.24
2017-08-15T01:44:56.501Z,19.20
2017-08-15T01:45:56.733Z,19.14
2017-08-15T01:46:56.486Z,19.06
2017-08-15T01:47:56.850Z,18.97
2017-08-15T01:48:57.692Z,18.95
2017-08-15T01:49:57.565Z,18.90
2017-08-15T01:50:58.092Z,18.86
2017-08-15T01:51:56.871Z,18.87
2017-08-15T01:52:56.622Z,18.84
2017-08-15T01:53:56.790Z,18.91
2017-08-15T01:54:59.974Z,18.97
2017-08-15T01:55:57.950Z,18.95
2017-08-15T01:56:56.401Z,18.94
2017-08-15T01:57:57.336Z,19.05
2017-08-15T01:58:56.381Z,19.08
2017-08-15T01:59:56.430Z,19.05
2017-08-15T02:00:56.548Z,19.05
2017-08-15T02:01:56.533Z,19.10
2017-08-15T02:02:56.582Z,19.06
2017-08-15T02:03:56.639Z,19.15
2017-08-15T02:04:56.691Z,19.08
2017-08-15T02:05:56.809Z,19.08
2017-08-15T02:06:56.800Z,18.99
2017-08-15T02:07:56.849Z,18.95
2017-08-15T02:08:56.897Z,18.87
2017-08-15T02:09:56.953Z,18.83
2017-08-15T02:10:57.065Z,18.87
2017-08-15T02:11:57.054Z,18.91
2017-08-15T02:12:57.105Z,18.97
2017-08-15T02:13:57.157Z,18.95
2017-08-15T02:14:57.209Z,18.98
2017-08-15T02:15:57.334Z,18.92
2017-08-15T02:16:57.312Z,19.06
2017-08-15T02:17:57.364Z,19.08
2017-08-15T02:18:57.415Z,19.14
2017-08-15T02:19:57.467Z,19.01
2017-08-15T02:20:57.813Z,18.98
2017-08-15T02:21:57.571Z,18.91
2017-08-15T02:22:57.623Z,18.82
2017-08-15T02:23:57.674Z,18.80
2017-08-15T02:24:57.727Z,18.90
2017-08-15T02:25:57.780Z,18.79
2017-08-15T02:26:57.906Z,18.84
2017-08-15T02:27:57.881Z,18.80
2017-08-15T02:28:57.933Z,18.84
2017-08-15T02:29:57.990Z,18.90
2017-08-15T02:30:58.040Z,18.80
2017-08-15T02:31:58.157Z,18.82
2017-08-15T02:32:58.142Z,18.80
2017-08-15T02:33:58.192Z,18.82
2017-08-15T02:34:58.244Z,18.82
2017-08-15T02:35:58.298Z,18.86
2017-08-15T02:36:58.416Z,18.83
2017-08-15T02:37:58.402Z,18.79
2017-08-15T02:38:58.453Z,18.86
2017-08-15T02:39:58.505Z,18.84
2017-08-15T02:40:58.560Z,18.82
2017-08-15T02:41:58.903Z,18.77
2017-08-15T02:42:58.660Z,18.77
2017-08-15T02:43:58.712Z,18.76
2017-08-15T02:44:58.769Z,18.72
2017-08-15T02:45:58.816Z,18.76
2017-08-15T02:46:58.869Z,18.72
2017-08-15T02:47:58.983Z,18.76
2017-08-15T02:48:58.970Z,18.65
2017-08-15T02:49:59.023Z,18.73
2017-08-15T02:50:59.077Z,18.67
2017-08-15T02:51:59.126Z,18.65
2017-08-15T02:52:59.241Z,18.67
2017-08-15T02:53:59.232Z,18.55
2017-08-15T02:54:59.281Z,18.52
2017-08-15T02:55:59.338Z,18.44
2017-08-15T02:56:59.385Z,18.37
2017-08-15T02:57:59.500Z,18.39
2017-08-15T02:58:59.489Z,18.33
2017-08-15T02:59:59.540Z,18.29
2017-08-15T03:00:59.594Z,18.22
2017-08-15T03:01:59.644Z,18.22
2017-08-15T03:02:59.772Z,18.21
2017-08-15T03:03:59.749Z,18.24
2017-08-15T03:04:59.800Z,18.19
2017-08-15T03:05:59.851Z,18.12
2017-08-15T03:06:59.902Z,18.15
2017-08-15T03:08:00.241Z,18.15
2017-08-15T03:09:00.006Z,18.21
2017-08-15T03:10:00.063Z,18.10
2017-08-15T03:11:00.109Z,18.19
2017-08-15T03:12:00.185Z,18.07
2017-08-15T03:13:00.213Z,18.15
2017-08-15T03:14:00.325Z,18.10
2017-08-15T03:15:00.320Z,18.07
2017-08-15T03:16:00.368Z,18.09
2017-08-15T03:17:00.417Z,18.07
2017-08-15T03:18:00.469Z,18.03
2017-08-15T03:19:00.587Z,17.95
2017-08-15T03:20:00.572Z,17.99
2017-08-15T03:21:00.625Z,17.92
2017-08-15T03:22:00.680Z,17.89
2017-08-15T03:23:00.728Z,17.87
2017-08-15T03:24:00.851Z,17.92
2017-08-15T03:25:00.831Z,17.85
2017-08-15T03:26:00.883Z,17.89
2017-08-15T03:27:00.937Z,17.88
2017-08-15T03:28:00.986Z,17.92
2017-08-15T03:29:01.102Z,17.88
2017-08-15T03:30:01.089Z,17.89
2017-08-15T03:31:01.139Z,17.84
2017-08-15T03:32:01.188Z,17.74
2017-08-15T03:33:01.250Z,17.76
2017-08-15T03:34:01.358Z,17.74
2017-08-15T03:35:01.351Z,17.71
2017-08-15T03:36:01.399Z,17.64
2017-08-15T03:37:01.453Z,17.57
2017-08-15T03:38:01.498Z,17.64
2017-08-15T03:39:01.616Z,17.63
2017-08-15T03:40:01.607Z,17.67
2017-08-15T03:41:01.658Z,17.62
2017-08-15T03:42:01.706Z,17.67
2017-08-15T03:43:01.757Z,17.66
2017-08-15T03:44:01.883Z,17.66
2017-08-15T03:45:01.866Z,17.67
2017-08-15T03:46:01.917Z,17.67
2017-08-15T03:47:01.961Z,17.69
2017-08-15T03:48:02.016Z,17.67
2017-08-15T03:49:02.131Z,17.70
2017-08-15T03:50:02.180Z,17.70
2017-08-15T03:51:02.171Z,17.70
2017-08-15T03:52:02.226Z,17.70
2017-08-15T03:53:02.274Z,17.67
2017-08-15T03:54:02.324Z,17.73
2017-08-15T03:55:02.439Z,17.78
2017-08-15T03:56:02.425Z,17.76
2017-08-15T03:57:02.479Z,17.74
2017-08-15T03:58:02.528Z,17.71
2017-08-15T03:59:02.580Z,17.67
2017-08-15T04:00:02.701Z,17.73
2017-08-15T04:01:02.684Z,17.66
2017-08-15T04:02:02.732Z,17.71
2017-08-15T04:03:02.785Z,17.73
2017-08-15T04:04:02.836Z,17.84
2017-08-15T04:05:03.183Z,17.70
2017-08-15T04:06:02.939Z,17.71
2017-08-15T04:07:02.992Z,17.71
2017-08-15T04:08:03.044Z,17.62
2017-08-15T04:09:03.095Z,17.64
2017-08-15T04:10:03.151Z,17.64
2017-08-15T04:11:03.259Z,17.67
2017-08-15T04:12:03.248Z,17.67
2017-08-15T04:13:03.299Z,17.62
2017-08-15T04:14:03.351Z,17.55
2017-08-15T04:15:03.402Z,17.50
2017-08-15T04:16:03.515Z,17.48
2017-08-15T04:17:03.506Z,17.38
2017-08-15T04:18:03.555Z,17.36
2017-08-15T04:19:03.609Z,17.38
2017-08-15T04:20:03.658Z,17.46
2017-08-15T04:21:03.777Z,17.50
2017-08-15T04:22:03.759Z,17.38
2017-08-15T04:23:03.814Z,17.43
2017-08-15T04:24:03.866Z,17.47
2017-08-15T04:25:03.915Z,17.50
2017-08-15T04:26:04.033Z,17.47
2017-08-15T04:27:04.020Z,17.48
2017-08-15T04:28:04.070Z,17.54
2017-08-15T04:29:04.119Z,17.46
2017-08-15T04:30:04.171Z,17.59
2017-08-15T04:31:04.519Z,17.50
2017-08-15T04:32:04.274Z,17.53
2017-08-15T04:33:04.326Z,17.54
2017-08-15T04:34:04.375Z,17.51
2017-08-15T04:35:04.427Z,17.55
2017-08-15T04:36:04.478Z,17.57
2017-08-15T04:37:04.593Z,17.48
2017-08-15T04:38:04.582Z,17.54
2017-08-15T04:39:04.631Z,17.44
2017-08-15T04:40:04.683Z,17.53
2017-08-15T04:41:04.735Z,17.54
2017-08-15T04:42:04.876Z,17.50
2017-08-15T04:43:04.837Z,17.50
2017-08-15T04:44:04.890Z,17.47
2017-08-15T04:45:04.939Z,17.46
2017-08-15T04:46:04.988Z,17.44
2017-08-15T04:47:05.106Z,17.43
2017-08-15T04:48:05.094Z,17.41
2017-08-15T04:49:05.146Z,17.41
2017-08-15T04:50:05.195Z,17.40
2017-08-15T04:51:05.263Z,17.44
2017-08-15T04:52:05.376Z,17.41
2017-08-15T04:53:05.353Z,17.44
2017-08-15T04:54:05.402Z,17.44
2017-08-15T04:55:05.454Z,17.38
2017-08-15T04:56:05.504Z,17.43
2017-08-15T04:57:05.851Z,17.41
2017-08-15T04:58:05.606Z,17.38
2017-08-15T04:59:05.658Z,17.46
2017-08-15T05:00:05.710Z,17.36
2017-08-15T05:01:05.762Z,17.47
2017-08-15T05:02:05.813Z,17.48
2017-08-15T05:03:05.929Z,17.47
2017-08-15T05:04:05.914Z,17.54
2017-08-15T05:05:05.966Z,17.64
2017-08-15T05:06:06.018Z,17.69
2017-08-15T05:07:06.069Z,17.81
2017-08-15T05:08:06.187Z,17.92
2017-08-15T05:09:06.173Z,18.02
2017-08-15T05:10:06.225Z,18.06
2017-08-15T05:11:06.282Z,18.17
2017-08-15T05:12:06.327Z,18.18
2017-08-15T05:13:06.448Z,18.22
2017-08-15T05:14:06.451Z,18.24
2017-08-15T05:15:06.480Z,18.27
2017-08-15T05:16:06.533Z,18.28
2017-08-15T05:17:06.590Z,18.22
2017-08-15T05:18:06.700Z,18.22
2017-08-15T05:19:06.685Z,18.21
2017-08-15T05:20:06.737Z,18.33
2017-08-15T05:21:06.794Z,18.33
2017-08-15T05:22:06.841Z,18.25
2017-08-15T05:23:06.966Z,18.27
2017-08-15T05:24:06.944Z,18.29
2017-08-15T05:25:06.995Z,18.25
2017-08-15T05:26:07.048Z,18.27
2017-08-15T05:27:07.100Z,18.34
2017-08-15T05:28:07.215Z,18.31
2017-08-15T05:29:07.269Z,18.28
2017-08-15T05:30:07.254Z,18.29
2017-08-15T05:31:07.304Z,18.31
2017-08-15T05:32:07.358Z,18.33
2017-08-15T05:33:07.409Z,18.42
2017-08-15T05:34:07.532Z,18.47
2017-08-15T05:35:07.511Z,18.55
2017-08-15T05:36:07.574Z,18.64
2017-08-15T05:37:07.614Z,18.70
2017-08-15T05:38:07.675Z,18.72
2017-08-15T05:39:07.791Z,18.76
2017-08-15T05:40:07.769Z,18.77
2017-08-15T05:41:12.107Z,18.80
2017-08-15T05:42:10.475Z,18.86
2017-08-15T05:43:07.925Z,18.80
2017-08-15T05:44:08.045Z,18.86
2017-08-15T05:45:12.432Z,18.99
2017-08-15T05:46:10.354Z,19.13
2017-08-15T05:47:08.132Z,19.15
2017-08-15T05:48:08.184Z,19.20
2017-08-15T05:49:08.238Z,19.35
2017-08-15T05:50:08.351Z,19.40
2017-08-15T05:51:08.339Z,19.46
2017-08-15T05:52:08.391Z,19.47
2017-08-15T05:53:08.992Z,19.47
2017-08-15T05:54:08.494Z,19.46
2017-08-15T05:55:08.622Z,19.51
2017-08-15T05:56:08.601Z,19.51
2017-08-15T05:57:08.652Z,19.63
2017-08-15T05:58:08.707Z,19.63
2017-08-15T05:59:08.756Z,19.69
2017-08-15T06:00:08.875Z,19.75
2017-08-15T06:01:08.861Z,19.73
2017-08-15T06:02:08.911Z,19.75
2017-08-15T06:03:08.962Z,19.80
2017-08-15T06:04:09.014Z,19.87
2017-08-15T06:05:09.142Z,19.98
2017-08-15T06:06:09.117Z,20.08
2017-08-15T06:07:09.175Z,20.09
2017-08-15T06:08:09.224Z,20.08
2017-08-15T06:09:09.284Z,20.23
2017-08-15T06:10:09.618Z,20.30
2017-08-15T06:11:09.379Z,20.46
2017-08-15T06:12:09.434Z,20.49
2017-08-15T06:13:09.490Z,20.64
2017-08-15T06:14:09.537Z,20.68
2017-08-15T06:15:09.592Z,20.77
2017-08-15T06:16:09.707Z,20.79
2017-08-15T06:17:09.695Z,20.81
2017-08-15T06:18:09.747Z,20.79
2017-08-15T06:19:09.798Z,20.80
2017-08-15T06:20:09.852Z,20.66
2017-08-15T06:21:09.969Z,20.69
2017-08-15T06:22:09.955Z,20.62
2017-08-15T06:23:10.008Z,20.62
2017-08-15T06:24:10.064Z,20.53
2017-08-15T06:25:10.114Z,20.59
2017-08-15T06:26:10.231Z,20.59
2017-08-15T06:27:10.223Z,20.50
2017-08-15T06:28:10.272Z,20.54
2017-08-15T06:29:10.326Z,20.66
2017-08-15T06:30:10.387Z,20.65
2017-08-15T06:31:10.496Z,20.81
2017-08-15T06:32:10.484Z,20.79
2017-08-15T06:33:10.536Z,20.89
2017-08-15T06:34:10.587Z,20.91
2017-08-15T06:35:10.639Z,20.98
2017-08-15T06:36:10.771Z,21.04
2017-08-15T06:37:10.749Z,21.11
2017-08-15T06:38:10.798Z,21.14
2017-08-15T06:39:10.852Z,21.23
2017-08-15T06:40:10.904Z,21.30
2017-08-15T06:41:11.022Z,21.26
2017-08-15T06:42:11.079Z,21.34
2017-08-15T06:43:11.068Z,21.38
2017-08-15T06:44:11.116Z,21.45
2017-08-15T06:45:11.170Z,21.50
2017-08-15T06:46:11.225Z,21.53
2017-08-15T06:47:11.343Z,21.59
2017-08-15T06:48:11.439Z,21.75
2017-08-15T06:49:11.383Z,21.83
2017-08-15T06:50:11.435Z,22.13
2017-08-15T06:51:11.489Z,22.59
2017-08-15T06:52:11.610Z,23.42
2017-08-15T06:53:11.592Z,24.02
2017-08-15T06:54:11.647Z,24.47
2017-08-15T06:55:11.703Z,25.22
2017-08-15T06:56:11.753Z,25.47
2017-08-15T06:57:11.879Z,25.52
2017-08-15T06:58:11.859Z,25.65
2017-08-15T06:59:11.913Z,25.72
2017-08-15T07:00:11.971Z,25.25
2017-08-15T07:01:12.025Z,25.19
2017-08-15T07:02:12.141Z,25.17
2017-08-15T07:03:12.142Z,24.98
2017-08-15T07:04:12.189Z,25.37
2017-08-15T07:05:12.240Z,25.69
2017-08-15T07:06:12.297Z,26.65
2017-08-15T07:07:12.417Z,26.87
2017-08-15T07:08:12.406Z,26.99
2017-08-15T07:09:12.457Z,27.01
2017-08-15T07:10:12.512Z,26.74
2017-08-15T07:11:12.569Z,27.04
2017-08-15T07:12:12.708Z,27.02
2017-08-15T07:13:12.679Z,26.80
2017-08-15T07:14:12.733Z,26.40
2017-08-15T07:15:12.792Z,26.31
2017-08-15T07:16:12.841Z,26.79
2017-08-15T07:17:12.967Z,27.17
2017-08-15T07:18:12.950Z,26.46
2017-08-15T07:19:13.007Z,27.11
2017-08-15T07:20:13.064Z,27.57
2017-08-15T07:21:13.119Z,27.35
2017-08-15T07:22:13.243Z,27.57
2017-08-15T07:23:13.304Z,28.07
2017-08-15T07:24:13.287Z,28.10
2017-08-15T07:25:13.342Z,27.67
2017-08-15T07:26:13.397Z,27.20
2017-08-15T07:27:13.456Z,27.71
2017-08-15T07:28:13.579Z,27.71
2017-08-15T07:29:13.573Z,27.51
2017-08-15T07:30:13.619Z,27.19
2017-08-15T07:31:13.676Z,27.28
2017-08-15T07:32:13.736Z,27.28
2017-08-15T07:33:13.851Z,27.50
2017-08-15T07:34:13.848Z,28.11
2017-08-15T07:35:13.901Z,28.01
2017-08-15T07:36:13.956Z,28.19
2017-08-15T07:37:14.016Z,28.26
2017-08-15T07:38:14.158Z,28.11
2017-08-15T07:39:14.125Z,27.71
2017-08-15T07:40:14.187Z,27.26
2017-08-15T07:41:14.238Z,27.54
2017-08-15T07:42:14.293Z,27.66
2017-08-15T07:43:14.414Z,28.11
2017-08-15T07:44:14.474Z,28.47
2017-08-15T07:45:14.464Z,28.73
2017-08-15T07:46:14.519Z,28.44
2017-08-15T07:47:14.581Z,29.01
2017-08-15T07:48:14.632Z,28.26
2017-08-15T07:49:14.756Z,27.43
2017-08-15T07:50:14.750Z,27.53
2017-08-15T07:51:14.798Z,27.94
2017-08-15T07:52:14.861Z,27.47
2017-08-15T07:53:14.919Z,27.57
2017-08-15T07:54:15.036Z,27.85
2017-08-15T07:55:15.030Z,27.58
2017-08-15T07:56:15.091Z,27.35
2017-08-15T07:57:15.144Z,26.91
2017-08-15T07:58:15.198Z,27.05
2017-08-15T07:59:15.340Z,27.59
2017-08-15T08:00:15.310Z,28.10
2017-08-15T08:01:15.369Z,28.10
2017-08-15T08:02:15.423Z,27.66
2017-08-15T08:03:15.486Z,28.14
2017-08-15T08:04:15.610Z,28.31
2017-08-15T08:05:15.597Z,28.01
2017-08-15T08:06:15.655Z,27.79
2017-08-15T08:07:15.709Z,27.79
2017-08-15T08:08:15.766Z,28.07
2017-08-15T08:09:15.892Z,27.86
2017-08-15T08:10:15.944Z,27.89
2017-08-15T08:11:15.937Z,27.69
2017-08-15T08:12:15.994Z,27.57
2017-08-15T08:13:16.054Z,27.11
2017-08-15T08:14:16.104Z,27.21
2017-08-15T08:15:16.231Z,27.88
2017-08-15T08:16:16.227Z,27.62
2017-08-15T08:17:16.282Z,27.53
2017-08-15T08:18:16.333Z,27.59
2017-08-15T08:19:16.390Z,28.06
2017-08-15T08:20:16.514Z,28.47
2017-08-15T08:21:16.510Z,28.88
2017-08-15T08:22:16.562Z,28.46
2017-08-15T08:23:16.619Z,28.36
2017-08-15T08:24:16.677Z,28.72
2017-08-15T08:25:16.818Z,29.16
2017-08-15T08:26:16.792Z,28.54
2017-08-15T08:27:16.847Z,27.73
2017-08-15T08:28:16.904Z,27.84
2017-08-15T08:29:16.961Z,27.89
2017-08-15T08:30:17.084Z,28.03
2017-08-15T08:31:17.141Z,27.86
2017-08-15T08:32:17.135Z,27.80
2017-08-15T08:33:17.196Z,28.22
2017-08-15T08:34:17.249Z,28.53
2017-08-15T08:35:17.306Z,28.51
2017-08-15T08:36:17.431Z,28.48
2017-08-15T08:37:17.421Z,28.17
2017-08-15T08:38:17.477Z,28.66
2017-08-15T08:39:17.537Z,28.69
2017-08-15T08:40:17.593Z,29.10
2017-08-15T08:41:17.718Z,29.13
2017-08-15T08:42:17.709Z,28.60
2017-08-15T08:43:17.765Z,27.84
2017-08-15T08:44:17.825Z,27.70
2017-08-15T08:45:17.881Z,27.50
2017-08-15T08:46:18.002Z,27.89
2017-08-15T08:47:17.998Z,28.47
2017-08-15T08:48:18.059Z,28.84
2017-08-15T08:49:18.115Z,28.72
2017-08-15T08:50:18.178Z,29.10
2017-08-15T08:51:18.311Z,29.31
2017-08-15T08:52:18.283Z,29.65
2017-08-15T08:53:18.348Z,29.52
2017-08-15T08:54:18.401Z,29.22
2017-08-15T08:55:18.457Z,29.10
2017-08-15T08:56:18.592Z,29.31
2017-08-15T08:57:18.574Z,28.47
2017-08-15T08:58:18.631Z,28.91
2017-08-15T08:59:18.690Z,28.58
2017-08-15T09:00:18.747Z,28.58
2017-08-15T09:01:18.871Z,27.89
2017-08-15T09:02:18.938Z,27.86
2017-08-15T09:03:18.922Z,27.62
2017-08-15T09:04:18.981Z,28.06
2017-08-15T09:05:19.041Z,28.29
2017-08-15T09:06:19.102Z,28.23
2017-08-15T09:07:19.219Z,28.54
2017-08-15T09:08:19.215Z,28.10
2017-08-15T09:09:19.272Z,28.31
2017-08-15T09:10:19.329Z,28.11
2017-08-15T09:11:19.389Z,28.46
2017-08-15T09:12:19.512Z,28.75
2017-08-15T09:13:19.505Z,28.82
2017-08-15T09:14:19.562Z,28.95
2017-08-15T09:15:19.622Z,29.34
2017-08-15T09:16:19.679Z,29.68
2017-08-15T09:17:19.813Z,29.38
2017-08-15T09:18:19.801Z,28.68
2017-08-15T09:19:19.853Z,28.38
2017-08-15T09:20:19.915Z,28.31
2017-08-15T09:21:19.976Z,28.16
2017-08-15T09:22:20.095Z,28.09
2017-08-15T09:23:20.160Z,28.17
2017-08-15T09:24:20.149Z,28.36
2017-08-15T09:25:20.205Z,28.68
2017-08-15T09:26:20.266Z,28.80
2017-08-15T09:27:20.325Z,28.29
2017-08-15T09:28:20.451Z,28.33
2017-08-15T09:29:20.442Z,28.54
2017-08-15T09:30:20.499Z,28.60
2017-08-15T09:31:20.561Z,28.26
2017-08-15T09:32:20.619Z,28.26
2017-08-15T09:33:20.742Z,28.70
2017-08-15T09:34:20.732Z,29.06
2017-08-15T09:35:20.792Z,29.35
2017-08-15T09:36:20.855Z,29.63
2017-08-15T09:37:20.909Z,29.45
2017-08-15T09:38:21.048Z,29.56
2017-08-15T09:39:21.026Z,29.65
2017-08-15T09:40:21.097Z,29.71
2017-08-15T09:41:21.146Z,29.89
2017-08-15T09:42:21.202Z,30.31
2017-08-15T09:43:21.331Z,30.67
2017-08-15T09:44:21.396Z,30.50
2017-08-15T09:45:21.384Z,30.52
2017-08-15T09:46:21.442Z,30.16
2017-08-15T09:47:21.503Z,29.78
2017-08-15T09:48:21.560Z,29.78
2017-08-15T09:49:21.702Z,29.29
2017-08-15T09:50:21.678Z,29.20
2017-08-15T09:51:21.737Z,29.45
2017-08-15T09:52:21.796Z,29.63
2017-08-15T09:53:21.856Z,29.35
2017-08-15T09:54:21.979Z,29.13
2017-08-15T09:55:21.978Z,29.04
2017-08-15T09:56:22.035Z,28.72
2017-08-15T09:57:22.095Z,29.10
2017-08-15T09:58:22.152Z,29.33
2017-08-15T09:59:22.286Z,29.55
2017-08-15T10:00:22.274Z,29.84
2017-08-15T10:01:22.335Z,29.63
2017-08-15T10:02:22.394Z,29.49
2017-08-15T10:03:22.451Z,29.33
2017-08-15T10:04:22.595Z,29.50
2017-08-15T10:05:22.570Z,29.41
2017-08-15T10:06:22.633Z,29.50
2017-08-15T10:07:22.686Z,29.59
2017-08-15T10:08:22.749Z,29.57
2017-08-15T10:09:22.901Z,29.77
2017-08-15T10:10:22.866Z,29.79
2017-08-15T10:11:22.925Z,29.37
2017-08-15T10:12:22.985Z,29.15
2017-08-15T10:13:23.053Z,29.01
2017-08-15T10:14:23.173Z,28.90
2017-08-15T10:15:23.233Z,28.58
2017-08-15T10:16:23.229Z,28.58
2017-08-15T10:17:23.284Z,28.59
2017-08-15T10:18:23.343Z,28.43
2017-08-15T10:19:23.400Z,28.29
2017-08-15T10:20:23.526Z,28.36
2017-08-15T10:21:23.520Z,28.19
2017-08-15T10:22:23.582Z,28.11
2017-08-15T10:23:23.642Z,28.10
2017-08-15T10:24:23.700Z,28.03
2017-08-15T10:25:23.826Z,28.13
2017-08-15T10:26:23.815Z,28.03
2017-08-15T10:27:23.874Z,27.92
2017-08-15T10:28:23.937Z,28.09
2017-08-15T10:29:23.997Z,27.95
2017-08-15T10:30:24.118Z,28.07
2017-08-15T10:31:24.110Z,28.28
2017-08-15T10:32:24.174Z,28.46
2017-08-15T10:33:24.231Z,28.25
2017-08-15T10:34:24.290Z,28.07
2017-08-15T10:35:24.422Z,28.25
2017-08-15T10:36:24.407Z,27.62
2017-08-15T10:37:24.469Z,27.64
2017-08-15T10:38:24.527Z,28.06
2017-08-15T10:39:24.586Z,28.19
2017-08-15T10:40:24.715Z,28.03
2017-08-15T10:41:24.701Z,27.99
2017-08-15T10:42:24.761Z,27.53
2017-08-15T10:43:24.817Z,27.21
2017-08-15T10:44:24.877Z,27.31
2017-08-15T10:45:25.021Z,27.54
2017-08-15T10:46:24.996Z,28.07
2017-08-15T10:47:25.051Z,28.59
2017-08-15T10:48:25.111Z,29.04
2017-08-15T10:49:25.170Z,28.91
2017-08-15T10:50:25.291Z,28.84
2017-08-15T10:51:25.355Z,28.69
2017-08-15T10:52:25.347Z,28.44
2017-08-15T10:53:25.404Z,28.58
2017-08-15T10:54:25.462Z,28.43
2017-08-15T10:55:25.524Z,28.80
2017-08-15T10:56:25.644Z,28.90
2017-08-15T10:57:25.640Z,29.31
2017-08-15T10:58:25.697Z,29.34
2017-08-15T10:59:25.756Z,29.29
2017-08-15T11:00:25.819Z,29.01
2017-08-15T11:01:25.961Z,28.43
2017-08-15T11:02:25.936Z,28.04
2017-08-15T11:03:25.993Z,27.99
2017-08-15T11:04:26.052Z,27.71
2017-08-15T11:05:26.112Z,27.86
2017-08-15T11:06:26.244Z,27.99
2017-08-15T11:07:26.228Z,28.09
2017-08-15T11:08:26.289Z,28.33
2017-08-15T11:09:26.348Z,27.99
2017-08-15T11:10:26.405Z,27.54
2017-08-15T11:11:26.550Z,27.47
2017-08-15T11:12:26.527Z,27.33
2017-08-15T11:13:26.592Z,27.39
2017-08-15T11:14:26.642Z,27.71
2017-08-15T11:15:26.706Z,28.07
2017-08-15T11:16:26.827Z,28.40
2017-08-15T11:17:26.884Z,28.72
2017-08-15T11:18:26.878Z,28.48
2017-08-15T11:19:26.937Z,28.17
2017-08-15T11:20:26.997Z,28.21
2017-08-15T11:21:27.057Z,28.28
2017-08-15T11:22:27.700Z,28.19
2017-08-15T11:23:27.173Z,28.63
2017-08-15T11:24:27.230Z,28.88
2017-08-15T11:25:27.290Z,28.88
2017-08-15T11:26:27.350Z,28.53
2017-08-15T11:27:27.479Z,28.21
2017-08-15T11:28:27.494Z,28.19
2017-08-15T11:29:27.529Z,28.36
2017-08-15T11:30:27.586Z,28.51
2017-08-15T11:31:27.645Z,28.75
2017-08-15T11:32:27.783Z,28.62
2017-08-15T11:33:27.765Z,28.62
2017-08-15T11:34:27.833Z,28.69
2017-08-15T11:35:27.882Z,28.69
2017-08-15T11:36:27.948Z,28.66
2017-08-15T11:37:28.081Z,28.81
2017-08-15T11:38:28.127Z,28.87
2017-08-15T11:39:28.121Z,28.33
2017-08-15T11:40:28.178Z,28.47
2017-08-15T11:41:28.239Z,28.87
2017-08-15T11:42:28.300Z,29.37
2017-08-15T11:43:28.426Z,28.70
2017-08-15T11:44:28.427Z,28.36
2017-08-15T11:45:28.485Z,28.10
2017-08-15T11:46:28.541Z,28.07
2017-08-15T11:47:28.601Z,28.36
2017-08-15T11:48:28.725Z,28.21
2017-08-15T11:49:28.721Z,28.44
2017-08-15T11:50:28.778Z,28.73
2017-08-15T11:51:28.840Z,28.87
2017-08-15T11:52:28.898Z,28.69
2017-08-15T11:53:29.041Z,28.85
2017-08-15T11:54:29.014Z,28.29
2017-08-15T11:55:29.076Z,28.06
2017-08-15T11:56:29.136Z,27.39
2017-08-15T11:57:29.203Z,27.01
2017-08-15T11:58:29.319Z,26.62
2017-08-15T11:59:29.378Z,26.59
2017-08-15T12:00:29.385Z,26.58
2017-08-15T12:01:29.439Z,26.59
2017-08-15T12:02:29.491Z,26.86
2017-08-15T12:03:29.554Z,27.19
2017-08-15T12:04:29.688Z,27.43
2017-08-15T12:05:29.673Z,27.51
2017-08-15T12:06:29.730Z,27.31
2017-08-15T12:07:29.790Z,27.41
2017-08-15T12:08:29.852Z,27.58
2017-08-15T12:09:29.991Z,27.13
2017-08-15T12:10:29.966Z,26.99
2017-08-15T12:11:30.027Z,26.62
2017-08-15T12:12:30.086Z,26.77
2017-08-15T12:13:30.145Z,27.05
2017-08-15T12:14:30.280Z,26.79
2017-08-15T12:15:30.332Z,26.87
2017-08-15T12:16:30.325Z,26.98
2017-08-15T12:17:30.386Z,27.33
2017-08-15T12:18:30.444Z,27.92
2017-08-15T12:19:30.501Z,27.95
2017-08-15T12:20:30.625Z,27.20
2017-08-15T12:21:30.620Z,26.79
2017-08-15T12:22:30.678Z,27.28
2017-08-15T12:23:30.743Z,27.58
2017-08-15T12:24:30.797Z,27.99
2017-08-15T12:25:30.923Z,28.51
2017-08-15T12:26:30.916Z,28.91
2017-08-15T12:27:30.979Z,29.01
2017-08-15T12:28:31.036Z,29.13
2017-08-15T12:29:31.095Z,29.33
2017-08-15T12:30:31.221Z,29.33
2017-08-15T12:31:31.214Z,29.44
2017-08-15T12:32:31.281Z,29.56
2017-08-15T12:33:31.338Z,29.71
2017-08-15T12:34:31.397Z,30.00
2017-08-15T12:35:31.522Z,29.33
2017-08-15T12:36:31.516Z,29.34
2017-08-15T12:37:31.581Z,29.18
2017-08-15T12:38:31.638Z,28.46
2017-08-15T12:39:31.698Z,28.28
2017-08-15T12:40:31.824Z,28.41
2017-08-15T12:41:31.823Z,28.29
2017-08-15T12:42:31.880Z,28.41
2017-08-15T12:43:31.940Z,28.36
2017-08-15T12:44:32.005Z,28.65
2017-08-15T12:45:32.143Z,28.51
2017-08-15T12:46:32.121Z,28.82
2017-08-15T12:47:32.184Z,28.93
2017-08-15T12:48:32.246Z,29.38
2017-08-15T12:49:32.309Z,29.72
2017-08-15T12:50:32.445Z,29.96
2017-08-15T12:51:32.428Z,30.23
2017-08-15T12:52:32.487Z,30.15
2017-08-15T12:53:32.549Z,30.38